createdAt,value
2023-05-08T00:01:09.863Z,102474.25
2023-05-08T00:03:37.311Z,102457.75
2023-05-08T00:06:05.902Z,102465.94
2023-05-08T00:08:33.350Z,102466.63
2023-05-08T00:11:00.696Z,102459.81
2023-05-08T00:13:27.798Z,102467.81
2023-05-08T00:15:54.928Z,102470.25
2023-05-08T00:18:22.046Z,102468.84
2023-05-08T00:20:49.080Z,102466.06
2023-05-08T00:23:16.093Z,102468.97
2023-05-08T00:25:43.233Z,102467.16
2023-05-08T00:28:10.376Z,102466.81
2023-05-08T00:30:37.578Z,102465.81
2023-05-08T00:33:05.127Z,102465.28
2023-05-08T00:35:32.154Z,102458.50
2023-05-08T00:37:59.596Z,102463.38
2023-05-08T00:40:26.949Z,102455.28
2023-05-08T00:42:54.460Z,102460.38
2023-05-08T00:45:21.517Z,102456.94
2023-05-08T00:47:50.380Z,102455.00
2023-05-08T00:50:18.491Z,102454.16
2023-05-08T00:52:46.416Z,102450.94
2023-05-08T00:55:13.772Z,102447.19
2023-05-08T00:57:41.061Z,102455.56
2023-05-08T01:00:09.592Z,102450.44
2023-05-08T01:02:37.057Z,102443.91
2023-05-08T01:05:04.812Z,102452.88
2023-05-08T01:07:32.838Z,102454.69
2023-05-08T01:09:59.939Z,102444.59
2023-05-08T01:13:08.545Z,102447.81
2023-05-08T01:15:43.736Z,102456.06
2023-05-08T01:18:42.747Z,102457.38
2023-05-08T01:21:32.685Z,102451.13
2023-05-08T01:24:08.647Z,102448.94
2023-05-08T01:26:54.146Z,102445.88
2023-05-08T01:30:06.165Z,102451.06
2023-05-08T01:32:39.195Z,102443.44
2023-05-08T01:35:17.623Z,102437.22
2023-05-08T01:38:07.878Z,102443.34
2023-05-08T01:40:48.961Z,102438.41
2023-05-08T01:43:43.805Z,102448.50
2023-05-08T01:46:19.509Z,102444.75
2023-05-08T01:49:09.733Z,102446.41
2023-05-08T01:51:48.703Z,102453.06
2023-05-08T01:54:19.928Z,102448.19
2023-05-08T01:56:48.950Z,102444.13
2023-05-08T01:59:21.006Z,102447.38
2023-05-08T02:01:49.676Z,102460.78
2023-05-08T02:04:18.201Z,102450.91
2023-05-08T02:06:46.212Z,102457.34
2023-05-08T02:09:13.804Z,102457.34
2023-05-08T02:11:43.506Z,102463.78
2023-05-08T02:14:13.458Z,102470.22
2023-05-08T02:16:42.548Z,102465.84
2023-05-08T02:19:11.709Z,102459.00
2023-05-08T02:21:39.921Z,102470.06
2023-05-08T02:24:08.378Z,102458.09
2023-05-08T02:26:36.962Z,102459.66
2023-05-08T02:29:04.220Z,102460.78
2023-05-08T02:31:32.093Z,102451.31
2023-05-08T02:34:00.633Z,102457.91
2023-05-08T02:36:30.928Z,102454.09
2023-05-08T02:38:59.177Z,102453.28
2023-05-08T02:41:30.619Z,102451.78
2023-05-08T02:43:58.217Z,102459.78
2023-05-08T02:46:54.483Z,102460.84
2023-05-08T02:49:45.930Z,102455.28
2023-05-08T02:52:37.007Z,102457.63
2023-05-08T02:55:27.531Z,102438.19
2023-05-08T02:58:01.752Z,102461.50
2023-05-08T03:00:32.982Z,102455.00
2023-05-08T03:03:07.780Z,102447.66
2023-05-08T03:05:38.842Z,102448.47
2023-05-08T03:08:15.859Z,102441.47
2023-05-08T03:10:46.786Z,102443.56
2023-05-08T03:13:16.621Z,102433.09
2023-05-08T03:15:50.474Z,102435.56
2023-05-08T03:18:21.186Z,102435.50
2023-05-08T03:20:52.793Z,102436.19
2023-05-08T03:23:22.013Z,102422.63
2023-05-08T03:25:49.280Z,102428.38
2023-05-08T03:28:17.935Z,102425.09
2023-05-08T03:30:46.083Z,102408.34
2023-05-08T03:33:13.492Z,102381.41
2023-05-08T03:35:41.613Z,102408.97
2023-05-08T03:38:08.892Z,102418.84
2023-05-08T03:40:38.653Z,102414.06
2023-05-08T03:43:07.818Z,102415.63
2023-05-08T03:45:37.966Z,102403.31
2023-05-08T03:48:07.348Z,102408.75
2023-05-08T03:50:36.333Z,102415.28
2023-05-08T03:53:04.551Z,102408.88
2023-05-08T03:55:32.881Z,102419.69
2023-05-08T03:58:08.099Z,102412.19
2023-05-08T04:01:01.808Z,102417.00
2023-05-08T04:03:44.540Z,102414.44
2023-05-08T04:06:23.232Z,102411.16
2023-05-08T04:09:02.331Z,102428.44
2023-05-08T04:11:44.526Z,102425.75
2023-05-08T04:14:32.960Z,102424.66
2023-05-08T04:17:06.940Z,102420.94
2023-05-08T04:19:38.963Z,102420.50
2023-05-08T04:22:08.106Z,102419.44
2023-05-08T04:24:43.301Z,102432.66
2023-05-08T04:27:11.470Z,102427.28
2023-05-08T04:29:39.334Z,102425.81
2023-05-08T04:32:07.093Z,102434.47
2023-05-08T04:34:34.525Z,102438.97
2023-05-08T04:37:03.727Z,102433.03
2023-05-08T04:39:30.878Z,102445.38
2023-05-08T04:42:03.004Z,102446.47
2023-05-08T04:44:30.631Z,102458.34
2023-05-08T04:46:57.732Z,102447.38
2023-05-08T04:49:25.071Z,102447.03
2023-05-08T04:51:52.114Z,102451.44
2023-05-08T04:54:19.165Z,102458.63
2023-05-08T04:56:46.244Z,102457.41
2023-05-08T04:59:14.771Z,102457.16
2023-05-08T05:01:43.353Z,102457.56
2023-05-08T05:04:10.505Z,102468.97
2023-05-08T05:06:37.681Z,102466.38
2023-05-08T05:09:05.412Z,102480.34
2023-05-08T05:11:32.428Z,102479.53
2023-05-08T05:13:59.900Z,102484.25
2023-05-08T05:16:27.554Z,102478.72
2023-05-08T05:18:54.763Z,102475.56
2023-05-08T05:21:21.988Z,102480.00
2023-05-08T05:23:49.054Z,102467.97
2023-05-08T05:26:16.181Z,102470.09
2023-05-08T05:28:43.280Z,102478.97
2023-05-08T05:31:10.905Z,102481.66
2023-05-08T05:33:38.358Z,102476.56
2023-05-08T05:36:05.705Z,102486.38
2023-05-08T05:38:32.887Z,102482.38
2023-05-08T05:41:00.250Z,102479.75
2023-05-08T05:43:27.898Z,102472.00
2023-05-08T05:45:58.363Z,102478.75
2023-05-08T05:48:25.432Z,102479.97
2023-05-08T05:50:52.489Z,102481.25
2023-05-08T05:53:19.688Z,102479.69
2023-05-08T05:55:46.909Z,102480.28
2023-05-08T05:58:14.041Z,102480.63
2023-05-08T06:00:41.338Z,102469.63
2023-05-08T06:03:08.485Z,102480.81
2023-05-08T06:05:35.712Z,102490.16
2023-05-08T06:08:02.858Z,102487.13
2023-05-08T06:10:30.055Z,102483.97
2023-05-08T06:12:57.256Z,102492.16
2023-05-08T06:15:24.708Z,102486.75
2023-05-08T06:17:52.969Z,102488.88
2023-05-08T06:20:20.154Z,102486.84
2023-05-08T06:22:47.225Z,102491.25
2023-05-08T06:25:14.552Z,102483.00
2023-05-08T06:27:42.118Z,102489.50
2023-05-08T06:30:10.867Z,102490.13
2023-05-08T06:32:38.437Z,102495.50
2023-05-08T06:35:06.012Z,102494.78
2023-05-08T06:37:33.353Z,102494.44
2023-05-08T06:40:11.477Z,102506.69
2023-05-08T06:42:39.354Z,102493.78
2023-05-08T06:45:07.579Z,102498.50
2023-05-08T06:47:34.789Z,102494.22
2023-05-08T06:50:02.030Z,102495.34
2023-05-08T06:52:29.518Z,102491.91
2023-05-08T06:54:56.546Z,102490.41
2023-05-08T06:57:26.281Z,102491.47
2023-05-08T06:59:54.251Z,102488.56
2023-05-08T07:02:21.706Z,102493.19
2023-05-08T07:04:48.886Z,102490.50
2023-05-08T07:07:16.193Z,102498.69
2023-05-08T07:09:43.555Z,102483.84
2023-05-08T07:12:10.627Z,102485.22
2023-05-08T07:14:37.689Z,102491.19
2023-05-08T07:17:08.133Z,102483.34
2023-05-08T07:19:38.750Z,102494.22
2023-05-08T07:22:06.102Z,102490.44
2023-05-08T07:24:33.416Z,102490.78
2023-05-08T07:27:01.604Z,102481.03
2023-05-08T07:29:28.780Z,102489.19
2023-05-08T07:31:56.279Z,102487.31
2023-05-08T07:34:23.465Z,102484.06
2023-05-08T07:36:50.707Z,102480.53
2023-05-08T07:39:17.787Z,102486.75
2023-05-08T07:41:47.123Z,102489.19
2023-05-08T07:44:16.601Z,102490.03
2023-05-08T07:46:44.153Z,102495.72
2023-05-08T07:49:11.742Z,102486.78
2023-05-08T07:51:39.389Z,102489.22
2023-05-08T07:54:09.613Z,102473.25
2023-05-08T07:56:36.643Z,102477.03
2023-05-08T07:59:03.772Z,102480.00
2023-05-08T08:01:31.584Z,102469.41
2023-05-08T08:03:58.823Z,102476.16
2023-05-08T08:06:26.017Z,102490.19
2023-05-08T08:08:53.092Z,102478.53
2023-05-08T08:11:20.184Z,102479.59
2023-05-08T08:13:47.238Z,102471.75
2023-05-08T08:16:14.411Z,102478.50
2023-05-08T08:18:41.639Z,102467.91
2023-05-08T08:21:08.794Z,102468.94
2023-05-08T08:23:36.138Z,102485.91
2023-05-08T08:26:03.298Z,102475.31
2023-05-08T08:28:30.643Z,102471.22
2023-05-08T08:30:58.260Z,102477.41
2023-05-08T08:33:28.538Z,102481.16
2023-05-08T08:35:55.737Z,102469.97
2023-05-08T08:38:22.804Z,102468.88
2023-05-08T08:40:49.902Z,102469.69
2023-05-08T08:43:17.126Z,102460.47
2023-05-08T08:45:44.280Z,102472.78
2023-05-08T08:48:12.559Z,102466.78
2023-05-08T08:50:46.701Z,102468.00
2023-05-08T08:53:25.830Z,102472.41
2023-05-08T08:55:58.009Z,102470.97
2023-05-08T08:58:39.218Z,102472.53
2023-05-08T09:01:07.861Z,102477.56
2023-05-08T09:03:35.690Z,102472.41
2023-05-08T09:06:03.048Z,102467.34
2023-05-08T09:08:30.191Z,102462.31
2023-05-08T09:10:57.425Z,102465.28
2023-05-08T09:13:24.663Z,102461.28
2023-05-08T09:15:51.916Z,102467.81
2023-05-08T09:18:19.410Z,102457.59
2023-05-08T09:20:47.153Z,102450.63
2023-05-08T09:23:17.683Z,102453.28
2023-05-08T09:25:47.373Z,102435.47
2023-05-08T09:28:25.468Z,102437.38
2023-05-08T09:30:59.211Z,102436.66
2023-05-08T09:33:28.453Z,102431.94
2023-05-08T09:35:56.424Z,102436.22
2023-05-08T09:38:37.971Z,102439.28
2023-05-08T09:41:16.461Z,102418.41
2023-05-08T09:43:44.789Z,102436.97
2023-05-08T09:46:24.951Z,102427.66
2023-05-08T09:48:57.561Z,102434.84
2023-05-08T09:51:26.534Z,102423.75
2023-05-08T09:53:59.063Z,102423.22
2023-05-08T09:56:34.477Z,102426.97
2023-05-08T09:59:24.260Z,102423.72
2023-05-08T10:01:51.597Z,102429.13
2023-05-08T10:04:19.060Z,102421.94
2023-05-08T10:06:57.358Z,102424.31
2023-05-08T10:09:25.262Z,102414.69
2023-05-08T10:11:54.895Z,102425.16
2023-05-08T10:14:23.528Z,102415.34
2023-05-08T10:16:53.068Z,102415.69
2023-05-08T10:19:22.576Z,102414.97
2023-05-08T10:21:54.245Z,102412.66
2023-05-08T10:24:28.028Z,102407.44
2023-05-08T10:27:07.355Z,102414.63
2023-05-08T10:29:47.450Z,102400.22
2023-05-08T10:32:19.103Z,102401.34
2023-05-08T10:34:49.809Z,102391.47
2023-05-08T10:37:17.472Z,102383.56
2023-05-08T10:39:45.038Z,102394.88
2023-05-08T10:42:15.605Z,102393.94
2023-05-08T10:44:43.031Z,102391.84
2023-05-08T10:47:25.307Z,102390.16
2023-05-08T10:50:12.796Z,102390.78
2023-05-08T10:52:49.732Z,102383.66
2023-05-08T10:55:25.023Z,102374.44
2023-05-08T10:58:11.671Z,102376.53
2023-05-08T11:00:56.863Z,102369.28
2023-05-08T11:03:32.079Z,102367.34
2023-05-08T11:06:01.997Z,102374.22
2023-05-08T11:08:30.807Z,102356.53
2023-05-08T11:11:06.356Z,102374.44
2023-05-08T11:13:48.744Z,102367.72
2023-05-08T11:16:16.592Z,102362.59
2023-05-08T11:19:32.306Z,102363.44
2023-05-08T11:22:12.131Z,102353.78
2023-05-08T11:24:41.700Z,102344.28
2023-05-08T11:27:08.753Z,102358.00
2023-05-08T11:29:36.241Z,102356.13
2023-05-08T11:32:03.558Z,102354.22
2023-05-08T11:34:43.402Z,102357.06
2023-05-08T11:37:21.674Z,102348.13
2023-05-08T11:39:49.032Z,102337.84
2023-05-08T11:42:25.025Z,102349.25
2023-05-08T11:45:07.720Z,102342.59
2023-05-08T11:47:41.175Z,102338.97
2023-05-08T11:50:09.691Z,102338.50
2023-05-08T11:52:38.231Z,102349.69
2023-05-08T11:55:07.492Z,102333.78
2023-05-08T11:57:34.904Z,102338.06
2023-05-08T12:00:10.317Z,102326.03
2023-05-08T12:02:42.211Z,102331.53
2023-05-08T12:05:10.880Z,102335.47
2023-05-08T12:07:48.124Z,102337.09
2023-05-08T12:10:16.858Z,102344.47
2023-05-08T12:12:45.264Z,102332.31
2023-05-08T12:15:15.361Z,102329.25
2023-05-08T12:17:42.865Z,102334.34
2023-05-08T12:20:15.917Z,102320.78
2023-05-08T12:22:50.601Z,102326.50
2023-05-08T12:25:18.168Z,102338.13
2023-05-08T12:27:46.995Z,102321.94
2023-05-08T12:30:17.889Z,102324.84
2023-05-08T12:32:46.268Z,102319.22
2023-05-08T12:35:14.538Z,102310.06
2023-05-08T12:37:41.867Z,102314.63
2023-05-08T12:40:26.168Z,102323.56
2023-05-08T12:42:53.399Z,102316.94
2023-05-08T12:45:22.048Z,102311.81
2023-05-08T12:47:50.034Z,102307.41
2023-05-08T12:50:18.843Z,102319.63
2023-05-08T12:52:45.991Z,102318.03
2023-05-08T12:55:27.607Z,102317.22
2023-05-08T12:58:15.514Z,102326.13
2023-05-08T13:00:43.866Z,102319.84
2023-05-08T13:03:13.073Z,102305.56
2023-05-08T13:05:48.164Z,102301.97
2023-05-08T13:08:15.308Z,102314.47
2023-05-08T13:10:53.305Z,102306.03
2023-05-08T13:13:23.197Z,102294.81
2023-05-08T13:15:51.773Z,102304.22
2023-05-08T13:18:20.234Z,102296.88
2023-05-08T13:20:47.302Z,102300.75
2023-05-08T13:23:14.485Z,102289.56
2023-05-08T13:25:41.654Z,102295.53
2023-05-08T13:28:09.637Z,102305.56
2023-05-08T13:30:37.712Z,102291.50
2023-05-08T13:33:05.572Z,102300.53
2023-05-08T13:35:33.780Z,102297.84
2023-05-08T13:38:01.417Z,102279.38
2023-05-08T13:40:41.935Z,102291.41
2023-05-08T13:43:09.275Z,102281.03
2023-05-08T13:45:36.743Z,102281.50
2023-05-08T13:48:04.438Z,102281.50
2023-05-08T13:50:31.835Z,73387.22
2023-05-08T13:53:00.660Z,73387.22
2023-05-08T13:55:28.535Z,73387.22
2023-05-08T13:57:58.341Z,73387.22
2023-05-08T14:00:28.284Z,102268.78
2023-05-08T14:02:55.929Z,102265.00
2023-05-08T14:05:23.324Z,73387.22
2023-05-08T14:07:50.782Z,73387.22
2023-05-08T14:10:18.238Z,73387.22
2023-05-08T14:12:46.888Z,73387.22
2023-05-08T14:15:14.612Z,73387.22
2023-05-08T14:17:42.600Z,73387.22
2023-05-08T14:20:12.048Z,73387.22
2023-05-08T14:22:39.937Z,73387.22
2023-05-08T14:25:08.098Z,73387.22
2023-05-08T14:27:35.469Z,73387.22
2023-05-08T14:30:03.372Z,73387.22
2023-05-08T14:32:31.205Z,73387.22
2023-05-08T14:34:58.651Z,73387.22
2023-05-08T14:37:26.754Z,73387.22
2023-05-08T14:39:56.262Z,73387.22
2023-05-08T14:42:23.919Z,73387.22
2023-05-08T14:44:52.882Z,73387.22
2023-05-08T14:47:20.621Z,73387.22
2023-05-08T14:49:48.237Z,73387.22
2023-05-08T14:52:15.961Z,73387.22
2023-05-08T14:54:43.729Z,73387.22
2023-05-08T14:57:11.322Z,73387.22
2023-05-08T14:59:43.551Z,73387.22
2023-05-08T15:02:18.170Z,73387.22
2023-05-08T15:04:46.728Z,73387.22
2023-05-08T15:07:14.052Z,73387.22
2023-05-08T15:09:42.181Z,73387.22
2023-05-08T15:12:09.720Z,73387.22
2023-05-08T15:14:37.023Z,73387.22
2023-05-08T15:17:04.398Z,73387.22
2023-05-08T15:19:31.950Z,73387.22
2023-05-08T15:21:59.319Z,73387.22
2023-05-08T15:24:26.615Z,73387.22
2023-05-08T15:26:54.271Z,73387.22
2023-05-08T15:29:21.765Z,73387.22
2023-05-08T15:31:49.253Z,73387.22
2023-05-08T15:34:16.734Z,73387.22
2023-05-08T15:36:43.931Z,73387.22
2023-05-08T15:39:11.498Z,73387.22
2023-05-08T15:41:40.150Z,73387.22
2023-05-08T15:44:10.742Z,73387.22
2023-05-08T15:46:38.469Z,73387.22
2023-05-08T15:49:05.830Z,73387.22
2023-05-08T15:51:33.156Z,73387.22
2023-05-08T15:54:00.735Z,73387.22
2023-05-08T15:56:28.355Z,73387.22
2023-05-08T15:58:57.664Z,73387.22
2023-05-08T16:01:26.571Z,73387.22
2023-05-08T16:03:54.047Z,73387.22
2023-05-08T16:06:21.405Z,73387.22
2023-05-08T16:08:48.969Z,73387.22
2023-05-08T16:11:16.402Z,73387.22
2023-05-08T16:13:43.972Z,73387.22
2023-05-08T16:16:11.464Z,73387.22
2023-05-08T16:18:38.976Z,73387.22
2023-05-08T16:21:10.645Z,73387.22
2023-05-08T16:23:38.102Z,73387.22
2023-05-08T16:26:06.086Z,73387.22
2023-05-08T16:28:33.834Z,73387.22
2023-05-08T16:31:02.424Z,73387.22
2023-05-08T16:33:29.843Z,73387.22
2023-05-08T16:35:57.253Z,73387.22
2023-05-08T16:38:24.958Z,73387.22
2023-05-08T16:40:52.307Z,73387.22
2023-05-08T16:43:19.903Z,73387.22
2023-05-08T16:45:51.306Z,73387.22
2023-05-08T16:48:18.666Z,73387.22
2023-05-08T16:50:46.070Z,73387.22
2023-05-08T16:53:13.748Z,73387.22
2023-05-08T16:55:41.385Z,73387.22
2023-05-08T16:58:08.786Z,102265.00
2023-05-08T17:00:36.247Z,102158.63
2023-05-08T17:03:03.890Z,102166.28
2023-05-08T17:05:31.314Z,102165.50
2023-05-08T17:07:59.000Z,102161.66
2023-05-08T17:10:26.357Z,102159.31
2023-05-08T17:12:54.350Z,102152.41
2023-05-08T17:15:21.990Z,102151.59
2023-05-08T17:17:50.609Z,102154.97
2023-05-08T17:20:18.186Z,102155.03
2023-05-08T17:22:45.789Z,102161.72
2023-05-08T17:25:13.499Z,102163.06
2023-05-08T17:27:41.410Z,102151.00
2023-05-08T17:30:13.336Z,102158.97
2023-05-08T17:32:41.439Z,102144.97
2023-05-08T17:35:09.751Z,102157.13
2023-05-08T17:37:37.394Z,102160.16
2023-05-08T17:40:05.177Z,102157.94
2023-05-08T17:42:32.557Z,102147.06
2023-05-08T17:45:00.228Z,102152.16
2023-05-08T17:47:27.732Z,102148.00
2023-05-08T17:49:55.268Z,102154.41
2023-05-08T17:52:22.641Z,102154.72
2023-05-08T17:54:54.042Z,102158.94
2023-05-08T17:57:21.519Z,102156.50
2023-05-08T17:59:48.933Z,102143.09
2023-05-08T18:02:16.297Z,102152.78
2023-05-08T18:04:43.920Z,102157.41
2023-05-08T18:07:11.991Z,102155.47
2023-05-08T18:09:39.252Z,102153.13
2023-05-08T18:12:07.075Z,102164.19
2023-05-08T18:14:34.852Z,102162.34
2023-05-08T18:17:02.736Z,102155.41
2023-05-08T18:19:30.106Z,102158.56
2023-05-08T18:21:58.452Z,102164.03
2023-05-08T18:24:25.879Z,102160.75
2023-05-08T18:26:53.192Z,102163.97
2023-05-08T18:29:21.075Z,102172.81
2023-05-08T18:31:48.707Z,102174.28
2023-05-08T18:34:16.713Z,102172.16
2023-05-08T18:36:44.590Z,102176.53
2023-05-08T18:39:11.835Z,102179.03
2023-05-08T18:41:39.541Z,102176.31
2023-05-08T18:44:07.010Z,102169.38
2023-05-08T18:46:35.054Z,102174.63
2023-05-08T18:49:02.448Z,102185.19
2023-05-08T18:51:29.733Z,102190.81
2023-05-08T18:53:57.375Z,102189.16
2023-05-08T18:56:24.918Z,102192.19
2023-05-08T18:58:52.298Z,102201.00
2023-05-08T19:01:21.495Z,102195.31
2023-05-08T19:03:48.901Z,102188.47
2023-05-08T19:06:17.094Z,102194.56
2023-05-08T19:08:44.707Z,102198.97
2023-05-08T19:11:12.075Z,102195.75
2023-05-08T19:13:39.620Z,102201.22
2023-05-08T19:16:07.216Z,102198.72
2023-05-08T19:18:35.006Z,102196.72
2023-05-08T19:21:02.435Z,102200.53
2023-05-08T19:23:30.096Z,102202.13
2023-05-08T19:25:57.310Z,102203.03
2023-05-08T19:28:24.666Z,102204.44
2023-05-08T19:30:52.154Z,102205.53
2023-05-08T19:33:21.078Z,102215.63
2023-05-08T19:35:49.068Z,102216.09
2023-05-08T19:38:16.274Z,102212.16
2023-05-08T19:40:55.678Z,102221.81
2023-05-08T19:43:25.842Z,102214.63
2023-05-08T19:45:53.527Z,102220.66
2023-05-08T19:48:21.076Z,102219.25
2023-05-08T19:50:48.640Z,102216.13
2023-05-08T19:53:16.018Z,102216.44
2023-05-08T19:55:44.647Z,102218.16
2023-05-08T19:58:12.670Z,102214.34
2023-05-08T20:00:39.978Z,102216.53
2023-05-08T20:03:07.874Z,102215.50
2023-05-08T20:05:36.312Z,102204.63
2023-05-08T20:08:03.729Z,102211.91
2023-05-08T20:10:30.969Z,102199.81
2023-05-08T20:12:58.644Z,102214.34
2023-05-08T20:15:25.971Z,102206.22
2023-05-08T20:17:54.983Z,102218.63
2023-05-08T20:20:22.473Z,102214.81
2023-05-08T20:22:49.752Z,102202.41
2023-05-08T20:25:17.617Z,102213.69
2023-05-08T20:27:44.758Z,102211.31
2023-05-08T20:30:12.485Z,102208.53
2023-05-08T20:32:40.105Z,102215.03
2023-05-08T20:35:07.868Z,102208.06
2023-05-08T20:37:35.298Z,102207.75
2023-05-08T20:40:04.834Z,102210.72
2023-05-08T20:42:32.473Z,102213.44
2023-05-08T20:44:59.760Z,102204.34
2023-05-08T20:47:27.514Z,102216.09
2023-05-08T20:49:54.638Z,102209.03
2023-05-08T20:52:21.939Z,102202.00
2023-05-08T20:54:50.442Z,102201.28
2023-05-08T20:57:18.614Z,102196.13
2023-05-08T20:59:47.602Z,102193.00
2023-05-08T21:02:15.212Z,102197.59
2023-05-08T21:04:42.576Z,102193.34
2023-05-08T21:07:10.453Z,102195.25
2023-05-08T21:09:38.687Z,102195.22
2023-05-08T21:12:06.604Z,102199.88
2023-05-08T21:14:35.530Z,102205.88
2023-05-08T21:17:05.652Z,102198.47
2023-05-08T21:19:34.227Z,102188.41
2023-05-08T21:22:02.982Z,102194.22
2023-05-08T21:24:31.170Z,102188.41
2023-05-08T21:27:00.708Z,102173.75
2023-05-08T21:29:28.266Z,102183.25
2023-05-08T21:31:55.745Z,102171.66
2023-05-08T21:34:24.276Z,102173.19
2023-05-08T21:36:51.977Z,102178.41
2023-05-08T21:39:19.419Z,102166.66
2023-05-08T21:41:46.766Z,102176.50
2023-05-08T21:44:15.609Z,102179.94
2023-05-08T21:46:42.801Z,102175.47
2023-05-08T21:49:10.951Z,102165.25
2023-05-08T21:51:38.126Z,102176.84
2023-05-08T21:54:05.347Z,102167.97
2023-05-08T21:56:32.804Z,102173.28
2023-05-08T21:58:59.940Z,102174.00
2023-05-08T22:01:27.057Z,102166.84
2023-05-08T22:03:54.302Z,102171.25
2023-05-08T22:06:21.547Z,102175.63
2023-05-08T22:08:48.623Z,102178.72
2023-05-08T22:11:15.906Z,102170.19
2023-05-08T22:13:42.976Z,102172.88
2023-05-08T22:16:10.134Z,102175.09
2023-05-08T22:18:37.550Z,102158.41
2023-05-08T22:21:04.723Z,102177.63
2023-05-08T22:23:34.408Z,102169.88
2023-05-08T22:26:01.629Z,102170.69
2023-05-08T22:28:28.894Z,102168.59
2023-05-08T22:30:55.976Z,102164.78
2023-05-08T22:33:24.429Z,102175.19
2023-05-08T22:35:51.827Z,102175.75
2023-05-08T22:38:19.251Z,102167.41
2023-05-08T22:40:47.769Z,102172.28
2023-05-08T22:43:14.950Z,102167.13
2023-05-08T22:45:42.184Z,102170.97
2023-05-08T22:48:10.442Z,102157.75
2023-05-08T22:50:37.821Z,102162.97
2023-05-08T22:53:08.374Z,102158.16
2023-05-08T22:55:35.786Z,102154.31
2023-05-08T22:58:03.779Z,102152.97
2023-05-08T23:00:30.837Z,102144.59
2023-05-08T23:02:57.976Z,102143.03
2023-05-08T23:05:25.248Z,102146.81
2023-05-08T23:07:52.336Z,102140.09
2023-05-08T23:10:19.417Z,102149.06
2023-05-08T23:12:46.995Z,102150.66
2023-05-08T23:15:14.482Z,102141.44
2023-05-08T23:17:41.781Z,102147.69
2023-05-08T23:20:09.432Z,102137.44
2023-05-08T23:22:36.561Z,102132.31
2023-05-08T23:25:04.185Z,102124.81
2023-05-08T23:27:31.247Z,102125.56
2023-05-08T23:29:58.857Z,102130.13
2023-05-08T23:32:26.034Z,102122.59
2023-05-08T23:34:53.226Z,102120.44
2023-05-08T23:37:20.343Z,102129.63
2023-05-08T23:39:47.333Z,102116.94
2023-05-08T23:42:14.432Z,102118.03
2023-05-08T23:44:41.478Z,102116.97
2023-05-08T23:47:08.877Z,102117.78
2023-05-08T23:49:36.037Z,102115.09
2023-05-08T23:52:03.451Z,102113.19
2023-05-08T23:54:30.668Z,102112.38
2023-05-08T23:56:57.836Z,102108.66
2023-05-08T23:59:25.188Z,102114.59
